Mozelle, Texas
Current Conditions -  °F | °C
As of 7:55 PM on Sunday 21 Dec 2014 (Local Time) from KCOM Reporting Station
Clear Clear  
Wind Chill: 51°   Ceiling: Unl
Heat Index: 51°   Visibility: 10mi
Dew Point: 45°   Wind: 13mph
Humidity: 80%   Direction: 170°S
Pressure: 29.75"   Gusts: NA
Location:  31.8779°N, 99.43°W
Report Text: KCOM 220155Z AUTO 17011KT 10SM CLR 11/07 A2975 RMK AO2 T01070073
Loading
Personal Weather Stations






























Interactive Weather Map New forecast layout! Learn more

10-Day Weather Forecast

Advertisements
Track Severe Weather on mobile